createdAt,value
2023-01-12T00:02:22.770Z,100779.97
2023-01-12T00:04:50.485Z,100772.94
2023-01-12T00:07:18.867Z,100780.81
2023-01-12T00:09:49.505Z,100765.00
2023-01-12T00:12:17.321Z,100778.16
2023-01-12T00:14:45.087Z,100758.81
2023-01-12T00:17:16.681Z,100776.38
2023-01-12T00:19:44.364Z,100774.94
2023-01-12T00:22:12.588Z,100772.06
2023-01-12T00:24:49.614Z,100780.63
2023-01-12T00:27:20.592Z,100753.94
2023-01-12T00:29:50.205Z,100764.47
2023-01-12T00:32:21.524Z,100747.63
2023-01-12T00:34:49.166Z,100756.44
2023-01-12T00:37:35.052Z,100762.44
2023-01-12T00:40:03.336Z,100751.84
2023-01-12T00:42:49.975Z,100753.38
2023-01-12T00:45:24.406Z,100756.03
2023-01-12T00:47:53.652Z,100755.97
2023-01-12T00:50:22.976Z,100756.75
2023-01-12T00:52:50.694Z,100748.69
2023-01-12T00:55:18.552Z,100752.09
2023-01-12T00:57:46.248Z,100744.97
2023-01-12T01:00:15.247Z,100743.94
2023-01-12T01:02:43.526Z,100743.03
2023-01-12T01:05:11.244Z,100739.56
2023-01-12T01:07:39.088Z,100743.81
2023-01-12T01:10:07.644Z,100741.94
2023-01-12T01:12:35.317Z,100741.16
2023-01-12T01:15:03.531Z,100756.09
2023-01-12T01:17:31.896Z,100744.75
2023-01-12T01:19:59.739Z,100755.19
2023-01-12T01:22:27.781Z,100748.13
2023-01-12T01:24:55.668Z,100750.63
2023-01-12T01:27:23.405Z,100748.13
2023-01-12T01:29:51.194Z,100752.41
2023-01-12T01:32:19.510Z,100760.38
2023-01-12T01:34:48.107Z,100767.34
2023-01-12T01:37:15.765Z,100766.41
2023-01-12T01:39:43.550Z,100774.25
2023-01-12T01:42:28.017Z,100782.97
2023-01-12T01:44:59.317Z,100766.34
2023-01-12T01:47:40.732Z,100767.91
2023-01-12T01:50:24.718Z,100768.59
2023-01-12T01:53:11.205Z,100780.53
2023-01-12T01:55:54.637Z,100772.31
2023-01-12T01:58:38.700Z,100771.28
2023-01-12T02:01:07.677Z,100770.38
2023-01-12T02:03:37.388Z,100758.69
2023-01-12T02:06:07.202Z,100754.22
2023-01-12T02:08:59.651Z,100753.34
2023-01-12T02:11:46.530Z,100749.78
2023-01-12T02:14:32.958Z,100750.84
2023-01-12T02:17:40.554Z,100741.84
2023-01-12T02:20:41.488Z,100729.59
2023-01-12T02:23:53.331Z,100728.66
2023-01-12T02:26:48.017Z,100718.00
2023-01-12T02:29:47.263Z,100705.56
2023-01-12T02:32:30.404Z,100710.00
2023-01-12T02:35:35.418Z,100719.00
2023-01-12T02:38:35.785Z,100706.69
2023-01-12T02:41:40.954Z,100690.72
2023-01-12T02:44:23.116Z,100690.72
2023-01-12T02:46:52.071Z,100690.81
2023-01-12T02:49:24.551Z,100687.22
2023-01-12T02:52:05.206Z,100709.31
2023-01-12T02:54:35.725Z,100687.41
2023-01-12T02:57:08.219Z,100711.38
2023-01-12T02:59:41.360Z,100695.28
2023-01-12T03:02:14.970Z,100702.41
2023-01-12T03:04:42.888Z,100701.38
2023-01-12T03:07:35.671Z,100708.38
2023-01-12T03:10:25.971Z,100700.38
2023-01-12T03:12:56.785Z,100696.97
2023-01-12T03:15:26.344Z,100686.31
2023-01-12T03:18:03.637Z,100679.19
2023-01-12T03:20:34.700Z,100686.25
2023-01-12T03:23:13.847Z,100693.31
2023-01-12T03:25:44.984Z,100700.34
2023-01-12T03:28:16.871Z,100686.34
2023-01-12T03:30:56.774Z,100694.97
2023-01-12T03:33:25.875Z,100680.28
2023-01-12T03:36:19.848Z,100681.84
2023-01-12T03:39:17.224Z,100688.84
2023-01-12T03:42:04.572Z,100693.22
2023-01-12T03:44:50.733Z,100693.22
2023-01-12T03:47:24.198Z,100694.97
2023-01-12T03:50:05.900Z,100692.13
2023-01-12T03:52:36.889Z,100688.69
2023-01-12T03:55:09.402Z,100686.00
2023-01-12T03:57:39.526Z,100682.34
2023-01-12T04:00:12.243Z,100675.38
2023-01-12T04:02:46.725Z,100678.72
2023-01-12T04:05:16.239Z,100669.81
2023-01-12T04:07:43.836Z,100668.84
2023-01-12T04:10:12.007Z,100660.00
2023-01-12T04:12:39.992Z,100653.72
2023-01-12T04:15:08.189Z,100651.94
2023-01-12T04:17:35.814Z,100639.53
2023-01-12T04:20:04.694Z,100652.97
2023-01-12T04:22:44.544Z,100629.13
2023-01-12T04:25:17.358Z,100621.91
2023-01-12T04:27:52.040Z,100608.75
2023-01-12T04:30:23.546Z,100615.72
2023-01-12T04:32:51.549Z,100616.75
2023-01-12T04:35:19.888Z,100618.59
2023-01-12T04:37:48.145Z,100620.50
2023-01-12T04:40:17.063Z,100603.75
2023-01-12T04:43:08.681Z,100634.47
2023-01-12T04:45:40.609Z,100624.03
2023-01-12T04:48:11.963Z,100630.13
2023-01-12T04:50:44.290Z,100622.22
2023-01-12T04:53:13.757Z,100620.56
2023-01-12T04:55:43.363Z,100639.00
2023-01-12T04:58:10.996Z,100628.50
2023-01-12T05:00:38.714Z,100626.66
2023-01-12T05:03:06.418Z,100620.72
2023-01-12T05:05:35.823Z,100633.81
2023-01-12T05:08:23.920Z,100630.13
2023-01-12T05:10:54.838Z,100625.03
2023-01-12T05:13:24.350Z,100615.41
2023-01-12T05:15:52.062Z,100619.72
2023-01-12T05:18:20.153Z,100611.56
2023-01-12T05:20:48.042Z,100606.22
2023-01-12T05:23:15.781Z,100609.75
2023-01-12T05:25:43.461Z,100605.38
2023-01-12T05:28:13.081Z,100598.31
2023-01-12T05:30:40.767Z,100593.16
2023-01-12T05:33:15.777Z,100590.47
2023-01-12T05:35:43.448Z,100587.13
2023-01-12T05:38:11.360Z,100572.94
2023-01-12T05:40:39.068Z,100573.78
2023-01-12T05:43:25.725Z,100561.66
2023-01-12T05:45:53.406Z,100566.06
2023-01-12T05:48:21.497Z,100553.84
2023-01-12T05:50:49.113Z,100567.84
2023-01-12T05:53:16.874Z,100563.38
2023-01-12T05:55:44.484Z,100570.34
2023-01-12T05:58:12.277Z,100555.38
2023-01-12T06:00:39.941Z,100557.97
2023-01-12T06:03:07.676Z,100549.03
2023-01-12T06:05:35.369Z,100550.69
2023-01-12T06:08:03.331Z,100544.47
2023-01-12T06:10:32.805Z,100543.53
2023-01-12T06:13:19.690Z,100522.38
2023-01-12T06:15:47.359Z,100527.78
2023-01-12T06:18:15.030Z,100530.38
2023-01-12T06:20:42.666Z,100520.75
2023-01-12T06:23:10.300Z,100529.28
2023-01-12T06:25:37.948Z,100522.25
2023-01-12T06:28:06.368Z,100520.41
2023-01-12T06:30:34.043Z,100536.41
2023-01-12T06:33:05.756Z,100528.41
2023-01-12T06:35:54.514Z,100515.81
2023-01-12T06:38:43.271Z,100520.28
2023-01-12T06:41:49.864Z,100518.53
2023-01-12T06:44:17.575Z,100527.34
2023-01-12T06:46:45.617Z,100514.25
2023-01-12T06:49:13.494Z,100528.25
2023-01-12T06:51:41.095Z,100526.47
2023-01-12T06:54:09.265Z,100537.78
2023-01-12T06:56:36.960Z,100513.84
2023-01-12T06:59:04.667Z,100513.84
2023-01-12T07:01:32.493Z,100517.19
2023-01-12T07:04:00.633Z,100520.56
2023-01-12T07:06:28.369Z,100509.72
2023-01-12T07:08:58.686Z,100506.34
2023-01-12T07:11:26.383Z,100502.75
2023-01-12T07:13:55.747Z,100506.97
2023-01-12T07:16:23.795Z,100503.53
2023-01-12T07:18:51.646Z,100514.03
2023-01-12T07:21:19.703Z,100505.28
2023-01-12T07:23:47.454Z,100498.97
2023-01-12T07:26:15.179Z,100497.22
2023-01-12T07:28:43.174Z,100497.94
2023-01-12T07:31:11.345Z,100499.75
2023-01-12T07:33:39.169Z,100498.78
2023-01-12T07:36:07.317Z,100498.72
2023-01-12T07:38:35.211Z,100502.22
2023-01-12T07:41:04.857Z,100505.56
2023-01-12T07:43:33.580Z,100509.91
2023-01-12T07:46:01.530Z,100521.41
2023-01-12T07:48:30.626Z,100510.94
2023-01-12T07:50:59.421Z,100523.13
2023-01-12T07:53:27.113Z,100524.00
2023-01-12T07:55:54.904Z,100537.25
2023-01-12T07:58:22.702Z,100523.06
2023-01-12T08:00:50.750Z,100533.47
2023-01-12T08:03:18.589Z,100525.63
2023-01-12T08:05:46.994Z,100533.63
2023-01-12T08:08:14.860Z,100533.66
2023-01-12T08:10:43.644Z,100529.16
2023-01-12T08:13:11.319Z,100532.69
2023-01-12T08:15:47.774Z,100513.41
2023-01-12T08:18:31.978Z,100522.00
2023-01-12T08:21:04.590Z,100523.75
2023-01-12T08:23:41.825Z,100523.75
2023-01-12T08:26:16.587Z,100520.22
2023-01-12T08:29:12.787Z,100509.63
2023-01-12T08:31:41.223Z,100513.22
2023-01-12T08:34:09.837Z,100514.81
2023-01-12T08:36:39.863Z,100513.03
2023-01-12T08:39:07.800Z,100528.97
2023-01-12T08:41:37.525Z,100530.69
2023-01-12T08:44:11.131Z,100535.94
2023-01-12T08:46:49.443Z,100527.00
2023-01-12T08:49:24.195Z,100517.47
2023-01-12T08:51:52.680Z,100527.16
2023-01-12T08:54:22.370Z,100528.03
2023-01-12T08:56:50.447Z,100543.25
2023-01-12T08:59:19.436Z,100523.81
2023-01-12T09:01:47.996Z,100521.16
2023-01-12T09:04:16.379Z,100539.72
2023-01-12T09:06:45.511Z,100534.31
2023-01-12T09:09:19.964Z,100540.41
2023-01-12T09:11:49.628Z,100530.63
2023-01-12T09:14:17.537Z,100530.69
2023-01-12T09:16:45.565Z,100528.78
2023-01-12T09:19:13.709Z,100519.09
2023-01-12T09:21:42.093Z,100537.53
2023-01-12T09:24:11.766Z,100516.09
2023-01-12T09:26:45.988Z,100528.28
2023-01-12T09:29:14.924Z,100527.34
2023-01-12T09:31:44.820Z,100511.34
2023-01-12T09:34:15.441Z,100512.28
2023-01-12T09:36:44.522Z,100497.56
2023-01-12T09:39:26.988Z,100514.88
2023-01-12T09:42:17.574Z,100514.03
2023-01-12T09:45:09.742Z,100494.53
2023-01-12T09:47:56.286Z,100495.63
2023-01-12T09:50:48.256Z,100517.28
2023-01-12T09:53:28.541Z,100489.00
2023-01-12T09:56:29.003Z,100510.22
2023-01-12T09:59:08.447Z,100514.53
2023-01-12T10:01:37.140Z,100507.38
2023-01-12T10:04:06.494Z,100504.53
2023-01-12T10:06:35.885Z,100494.84
2023-01-12T10:09:13.595Z,100477.09
2023-01-12T10:12:23.938Z,100494.56
2023-01-12T10:15:14.578Z,100467.72
2023-01-12T10:17:55.831Z,100505.38
2023-01-12T10:20:41.737Z,100488.53
2023-01-12T10:23:09.630Z,100506.34
2023-01-12T10:25:50.889Z,100496.44
2023-01-12T10:28:27.302Z,100494.91
2023-01-12T10:30:57.394Z,100500.91
2023-01-12T10:33:33.737Z,100502.56
2023-01-12T10:36:26.300Z,100481.97
2023-01-12T10:39:05.315Z,100462.13
2023-01-12T10:41:36.045Z,100452.28
2023-01-12T10:44:21.251Z,100483.34
2023-01-12T10:47:10.802Z,100471.78
2023-01-12T10:49:39.428Z,100451.94
2023-01-12T10:52:44.503Z,100467.41
2023-01-12T10:55:29.476Z,100459.84
2023-01-12T10:58:06.668Z,100472.84
2023-01-12T11:00:36.274Z,100469.00
2023-01-12T11:03:24.062Z,100468.06
2023-01-12T11:05:52.004Z,100477.53
2023-01-12T11:08:29.354Z,100486.19
2023-01-12T11:10:57.180Z,100458.84
2023-01-12T11:13:37.757Z,100475.31
2023-01-12T11:16:26.188Z,100474.44
2023-01-12T11:19:17.414Z,100470.69
2023-01-12T11:21:54.723Z,100466.16
2023-01-12T11:24:42.206Z,100480.09
2023-01-12T11:27:43.184Z,100471.31
2023-01-12T11:30:49.723Z,100481.84
2023-01-12T11:33:34.067Z,100463.97
2023-01-12T11:36:15.833Z,100468.16
2023-01-12T11:39:08.525Z,100459.75
2023-01-12T11:42:18.722Z,100454.31
2023-01-12T11:45:28.946Z,100466.34
2023-01-12T11:48:07.430Z,100444.59
2023-01-12T11:50:39.576Z,100442.44
2023-01-12T11:53:20.920Z,100421.72
2023-01-12T11:56:43.022Z,100426.31
2023-01-12T11:59:32.698Z,100411.97
2023-01-12T12:02:34.770Z,100402.84
2023-01-12T12:05:30.303Z,100401.34
2023-01-12T12:08:35.877Z,100402.84
2023-01-12T12:11:51.040Z,100396.50
2023-01-12T12:14:39.171Z,100401.63
2023-01-12T12:17:33.169Z,100393.41
2023-01-12T12:20:30.658Z,100386.88
2023-01-12T12:24:13.501Z,100375.22
2023-01-12T12:26:55.714Z,100367.34
2023-01-12T12:30:01.162Z,100367.22
2023-01-12T12:33:32.308Z,100383.03
2023-01-12T12:36:48.215Z,100379.19
2023-01-12T12:39:48.099Z,100349.03
2023-01-12T12:43:04.137Z,100382.91
2023-01-12T12:45:43.003Z,100384.84
2023-01-12T12:48:29.750Z,100376.66
2023-01-12T12:51:11.536Z,100382.09
2023-01-12T12:53:46.265Z,100389.34
2023-01-12T12:56:22.267Z,100371.47
2023-01-12T12:58:56.545Z,100360.81
2023-01-12T13:01:31.728Z,100364.22
2023-01-12T13:04:05.847Z,100359.47
2023-01-12T13:06:48.421Z,100348.81
2023-01-12T13:09:19.055Z,100359.38
2023-01-12T13:11:59.054Z,100373.38
2023-01-12T13:14:38.715Z,100375.25
2023-01-12T13:17:21.648Z,100356.69
2023-01-12T13:20:08.234Z,100365.59
2023-01-12T13:22:41.873Z,100366.53
2023-01-12T13:25:24.470Z,100369.22
2023-01-12T13:28:01.210Z,100370.06
2023-01-12T13:30:28.807Z,100373.63
2023-01-12T13:33:27.350Z,100359.94
2023-01-12T13:36:30.708Z,100367.19
2023-01-12T13:39:17.396Z,100366.47
2023-01-12T13:42:39.843Z,100369.03
2023-01-12T13:45:27.990Z,100371.81
2023-01-12T13:48:19.045Z,100377.16
2023-01-12T13:51:39.758Z,100375.50
2023-01-12T13:54:28.877Z,100373.84
2023-01-12T13:57:22.096Z,100375.88
2023-01-12T14:00:22.026Z,100363.75
2023-01-12T14:03:54.156Z,100373.09
2023-01-12T14:06:24.796Z,100371.66
2023-01-12T14:09:20.010Z,100376.75
2023-01-12T14:12:04.291Z,100348.41
2023-01-12T14:15:23.551Z,100367.25
2023-01-12T14:17:57.618Z,100362.41
2023-01-12T14:20:31.233Z,100359.53
2023-01-12T14:23:23.216Z,100358.66
2023-01-12T14:26:09.431Z,100369.56
2023-01-12T14:28:39.875Z,100349.03
2023-01-12T14:31:31.481Z,100337.03
2023-01-12T14:34:03.102Z,100344.72
2023-01-12T14:36:45.276Z,100349.78
2023-01-12T14:39:24.235Z,100362.28
2023-01-12T14:42:13.870Z,100333.19
2023-01-12T14:45:14.494Z,100347.19
2023-01-12T14:47:42.321Z,100332.41
2023-01-12T14:50:13.324Z,100350.94
2023-01-12T14:52:44.259Z,100329.88
2023-01-12T14:55:17.576Z,100340.28
2023-01-12T14:58:01.453Z,100332.41
2023-01-12T15:00:36.095Z,100351.63
2023-01-12T15:03:17.648Z,100356.94
2023-01-12T15:05:51.274Z,100355.06
2023-01-12T15:08:27.852Z,100347.53
2023-01-12T15:11:08.587Z,100349.34
2023-01-12T15:13:38.049Z,100345.81
2023-01-12T15:16:25.134Z,100337.75
2023-01-12T15:19:11.862Z,100343.31
2023-01-12T15:22:01.639Z,100344.09
2023-01-12T15:24:50.668Z,100335.38
2023-01-12T15:27:23.664Z,100350.13
2023-01-12T15:29:52.574Z,100349.03
2023-01-12T15:32:47.295Z,100336.63
2023-01-12T15:35:23.627Z,100337.50
2023-01-12T15:37:55.448Z,100339.00
2023-01-12T15:40:25.294Z,100327.59
2023-01-12T15:42:53.775Z,100330.91
2023-01-12T15:45:37.053Z,100333.44
2023-01-12T15:48:06.438Z,100342.50
2023-01-12T15:50:37.605Z,100335.34
2023-01-12T15:53:22.063Z,100351.06
2023-01-12T15:55:50.187Z,100336.31
2023-01-12T15:58:19.463Z,100337.06
2023-01-12T16:00:47.284Z,100347.75
2023-01-12T16:03:34.647Z,100343.41
2023-01-12T16:06:02.949Z,100344.78
2023-01-12T16:08:30.636Z,100350.78
2023-01-12T16:11:12.019Z,100349.03
2023-01-12T16:13:41.044Z,100335.09
2023-01-12T16:16:17.565Z,100337.41
2023-01-12T16:18:45.684Z,100338.44
2023-01-12T16:21:17.423Z,100351.59
2023-01-12T16:23:46.400Z,100341.88
2023-01-12T16:26:15.511Z,100337.34
2023-01-12T16:28:43.371Z,100339.16
2023-01-12T16:31:14.093Z,100333.88
2023-01-12T16:33:44.159Z,100333.97
2023-01-12T16:36:15.767Z,100336.63
2023-01-12T16:38:43.566Z,100325.38
2023-01-12T16:41:22.314Z,100330.56
2023-01-12T16:43:50.650Z,100327.19
2023-01-12T16:46:18.701Z,100322.88
2023-01-12T16:48:46.600Z,100337.97
2023-01-12T16:51:17.678Z,100317.75
2023-01-12T16:53:47.221Z,100316.00
2023-01-12T16:56:16.562Z,100312.53
2023-01-12T16:58:51.783Z,100323.31
2023-01-12T17:01:23.469Z,100305.03
2023-01-12T17:03:53.659Z,100303.97
2023-01-12T17:06:21.839Z,100302.06
2023-01-12T17:08:50.309Z,100292.41
2023-01-12T17:11:19.787Z,100287.72
2023-01-12T17:13:54.131Z,100288.72
2023-01-12T17:16:24.561Z,100294.94
2023-01-12T17:18:53.699Z,100298.53
2023-01-12T17:21:22.395Z,100293.19
2023-01-12T17:23:52.284Z,100283.38
2023-01-12T17:26:20.602Z,100281.72
2023-01-12T17:28:48.789Z,100283.47
2023-01-12T17:31:19.070Z,100282.50
2023-01-12T17:33:47.285Z,100283.53
2023-01-12T17:36:18.074Z,100270.31
2023-01-12T17:38:45.735Z,100287.06
2023-01-12T17:41:35.452Z,100274.50
2023-01-12T17:44:05.217Z,100268.84
2023-01-12T17:46:33.955Z,100271.06
2023-01-12T17:49:06.023Z,100261.22
2023-01-12T17:51:34.889Z,100278.78
2023-01-12T17:54:05.331Z,100274.50
2023-01-12T17:56:35.572Z,100267.28
2023-01-12T17:59:04.484Z,100278.78
2023-01-12T18:01:35.169Z,100267.13
2023-01-12T18:04:04.032Z,100262.19
2023-01-12T18:06:34.614Z,100263.69
2023-01-12T18:09:02.576Z,100268.59
2023-01-12T18:11:31.936Z,100250.59
2023-01-12T18:14:01.203Z,100255.72
2023-01-12T18:16:29.705Z,100250.53
2023-01-12T18:19:04.504Z,100265.41
2023-01-12T18:21:33.420Z,100255.03
2023-01-12T18:24:02.014Z,100254.16
2023-01-12T18:26:35.593Z,100260.06
2023-01-12T18:29:06.296Z,100269.06
2023-01-12T18:31:37.369Z,100261.88
2023-01-12T18:34:07.859Z,100253.91
2023-01-12T18:36:40.712Z,100260.72
2023-01-12T18:39:16.267Z,100250.03
2023-01-12T18:42:03.491Z,100246.63
2023-01-12T18:57:43.881Z,100223.53
2023-01-12T19:00:16.939Z,100224.72
2023-01-12T19:02:45.260Z,100227.41
2023-01-12T19:05:17.553Z,100219.59
2023-01-12T19:07:58.441Z,100236.44
2023-01-12T19:10:29.269Z,100240.13
2023-01-12T19:13:36.196Z,100237.41
2023-01-12T19:16:42.715Z,100234.34
2023-01-12T19:19:34.153Z,100251.84
2023-01-12T19:22:22.066Z,100249.94
2023-01-12T19:25:08.717Z,100263.31
2023-01-12T19:27:55.086Z,100275.06
2023-01-12T19:30:23.444Z,100271.53
2023-01-12T19:32:52.731Z,100247.00
2023-01-12T19:35:20.895Z,100256.44
2023-01-12T19:37:50.124Z,100253.78
2023-01-12T19:40:43.663Z,100247.00
2023-01-12T19:43:14.764Z,100245.22
2023-01-12T19:45:45.945Z,100245.75
2023-01-12T19:48:16.358Z,100243.22
2023-01-12T19:50:45.302Z,100265.41
2023-01-12T19:53:18.583Z,100238.53
2023-01-12T19:55:47.251Z,100244.25
2023-01-12T19:58:19.211Z,100233.66
2023-01-12T20:00:49.671Z,100248.34
2023-01-12T20:03:22.144Z,100224.63
2023-01-12T20:05:52.183Z,100220.13
2023-01-12T20:08:24.938Z,100233.34
2023-01-12T20:10:58.175Z,100220.22
2023-01-12T20:13:27.745Z,100236.81
2023-01-12T20:15:57.943Z,100228.00
2023-01-12T20:18:25.921Z,100200.81
2023-01-12T20:21:02.595Z,100208.59
2023-01-12T20:23:30.821Z,100218.41
2023-01-12T20:26:00.025Z,100205.78
2023-01-12T20:28:28.793Z,100206.72
2023-01-12T20:30:59.382Z,100215.81
2023-01-12T20:33:28.580Z,100206.94
2023-01-12T20:35:58.897Z,100197.34
2023-01-12T20:38:27.612Z,100203.34
2023-01-12T20:40:55.769Z,100193.81
2023-01-12T20:43:24.865Z,100200.88
2023-01-12T20:45:52.929Z,100196.28
2023-01-12T20:48:21.341Z,100182.19
2023-01-12T20:50:49.600Z,100194.72
2023-01-12T20:53:18.958Z,100188.63
2023-01-12T20:58:33.798Z,100163.72
2023-01-12T21:01:02.606Z,100169.78
2023-01-12T21:03:31.028Z,100169.69
2023-01-12T21:06:01.143Z,100183.81
2023-01-12T21:11:14.116Z,100161.59
2023-01-12T21:13:43.133Z,100162.31
2023-01-12T21:16:18.986Z,100161.06
2023-01-12T21:18:56.288Z,100162.19
2023-01-12T21:21:25.419Z,100159.28
2023-01-12T21:23:55.733Z,100146.94
2023-01-12T21:26:25.959Z,100149.25
2023-01-12T21:28:54.273Z,100134.34
2023-01-12T21:31:22.849Z,100143.03
2023-01-12T21:33:52.968Z,100129.72
2023-01-12T21:36:21.918Z,100135.78
2023-01-12T21:38:51.715Z,100153.13
2023-01-12T21:41:22.057Z,100134.66
2023-01-12T21:43:54.134Z,100149.88
2023-01-12T21:46:27.102Z,100129.50
2023-01-12T21:48:55.785Z,100149.72
2023-01-12T21:51:25.571Z,100148.00
2023-01-12T21:53:57.724Z,100134.75
2023-01-12T21:59:10.921Z,100122.28
2023-01-12T22:01:39.487Z,100124.91
2023-01-12T22:04:07.944Z,100130.81
2023-01-12T22:06:36.812Z,100124.69
2023-01-12T22:09:05.804Z,100118.31
2023-01-12T22:11:34.112Z,100121.59
2023-01-12T22:14:02.200Z,100118.88
2023-01-12T22:16:31.262Z,100110.06
2023-01-12T22:18:59.527Z,100103.84
2023-01-12T22:21:27.795Z,100094.81
2023-01-12T22:23:56.061Z,100089.53
2023-01-12T22:26:24.751Z,100091.22
2023-01-12T22:28:53.166Z,100107.00
2023-01-12T22:31:24.932Z,100114.78
2023-01-12T22:34:07.083Z,100100.84
2023-01-12T22:36:43.161Z,100120.91
2023-01-12T22:39:13.129Z,100119.19
2023-01-12T22:41:41.624Z,100121.94
2023-01-12T22:44:12.950Z,100112.50
2023-01-12T22:46:41.278Z,100115.97
2023-01-12T22:49:11.876Z,100127.97
2023-01-12T22:51:40.461Z,100127.19
2023-01-12T22:54:08.753Z,100129.72
2023-01-12T22:56:37.588Z,100125.88
2023-01-12T22:59:06.836Z,100126.88
2023-01-12T23:01:35.204Z,100101.19
2023-01-12T23:04:03.463Z,100112.97
2023-01-12T23:06:32.408Z,100107.44
2023-01-12T23:09:00.468Z,100108.41
2023-01-12T23:11:28.552Z,100112.66
2023-01-12T23:16:39.105Z,100112.50
2023-01-12T23:19:07.147Z,100097.47
2023-01-12T23:21:36.420Z,100104.38
2023-01-12T23:24:04.962Z,100086.44
2023-01-12T23:26:35.118Z,100092.69
2023-01-12T23:29:03.565Z,100083.09
2023-01-12T23:31:33.850Z,100083.88
2023-01-12T23:34:02.933Z,100084.50
2023-01-12T23:36:31.835Z,100081.09
2023-01-12T23:39:03.973Z,100087.34
2023-01-12T23:41:37.661Z,100073.09
2023-01-12T23:44:09.717Z,100087.88
2023-01-12T23:46:40.889Z,100062.25
2023-01-12T23:49:11.048Z,100072.84
2023-01-12T23:51:39.904Z,100074.41
2023-01-12T23:54:08.811Z,100072.94
2023-01-12T23:56:36.822Z,100070.34
2023-01-12T23:59:05.158Z,100063.97
